sensor_id;sensor_type;location;lat;lon;timestamp;pressure;altitude;pressure_sealevel;temperature
65738;BMP280;52478;51.844;6.582;2022-08-21T02:28:13;101397.13;;;25.98
65738;BMP280;52478;51.844;6.582;2022-08-21T02:30:42;101395.66;;;25.50
65738;BMP280;52478;51.844;6.582;2022-08-21T02:33:10;101402.56;;;25.36
65738;BMP280;52478;51.844;6.582;2022-08-21T02:35:37;101393.06;;;25.39
65738;BMP280;52478;51.844;6.582;2022-08-21T02:38:05;101395.44;;;25.35
65738;BMP280;52478;51.844;6.582;2022-08-21T02:40:33;101399.25;;;25.38
65738;BMP280;52478;51.844;6.582;2022-08-21T02:43:02;101396.97;;;25.36
65738;BMP280;52478;51.844;6.582;2022-08-21T02:45:31;101393.94;;;25.34
65738;BMP280;52478;51.844;6.582;2022-08-21T02:48:00;101396.75;;;25.34
65738;BMP280;52478;51.844;6.582;2022-08-21T02:50:29;101394.34;;;25.38
65738;BMP280;52478;51.844;6.582;2022-08-21T02:52:57;101400.09;;;25.33
65738;BMP280;52478;51.844;6.582;2022-08-21T02:55:25;101393.09;;;25.26
65738;BMP280;52478;51.844;6.582;2022-08-21T02:57:52;101390.91;;;25.32
65738;BMP280;52478;51.844;6.582;2022-08-21T03:00:19;101396.53;;;25.32
65738;BMP280;52478;51.844;6.582;2022-08-21T03:02:48;101384.13;;;25.02
65738;BMP280;52478;51.844;6.582;2022-08-21T03:05:15;101384.78;;;24.69
65738;BMP280;52478;51.844;6.582;2022-08-21T03:07:42;101379.91;;;24.70
65738;BMP280;52478;51.844;6.582;2022-08-21T03:10:10;101375.94;;;24.78
65738;BMP280;52478;51.844;6.582;2022-08-21T03:12:36;101376.47;;;24.64
65738;BMP280;52478;51.844;6.582;2022-08-21T03:15:03;101377.22;;;24.77
65738;BMP280;52478;51.844;6.582;2022-08-21T03:17:30;101381.63;;;24.60
65738;BMP280;52478;51.844;6.582;2022-08-21T03:19:58;101374.72;;;24.61
65738;BMP280;52478;51.844;6.582;2022-08-21T03:22:25;101374.47;;;24.46
65738;BMP280;52478;51.844;6.582;2022-08-21T03:24:52;101368.25;;;24.40
65738;BMP280;52478;51.844;6.582;2022-08-21T03:27:19;101371.84;;;24.35
65738;BMP280;52478;51.844;6.582;2022-08-21T03:29:45;101365.41;;;24.27
65738;BMP280;52478;51.844;6.582;2022-08-21T03:32:12;101361.28;;;24.28
65738;BMP280;52478;51.844;6.582;2022-08-21T03:34:39;101376.34;;;24.25
65738;BMP280;52478;51.844;6.582;2022-08-21T03:37:07;101376.28;;;24.30
65738;BMP280;52478;51.844;6.582;2022-08-21T03:39:35;101374.25;;;24.31
65738;BMP280;52478;51.844;6.582;2022-08-21T03:42:01;101376.38;;;24.38
65738;BMP280;52478;51.844;6.582;2022-08-21T03:44:28;101371.97;;;24.29
65738;BMP280;52478;51.844;6.582;2022-08-21T03:46:55;101379.78;;;24.18
65738;BMP280;52478;51.844;6.582;2022-08-21T03:49:21;101369.63;;;24.15
65738;BMP280;52478;51.844;6.582;2022-08-21T03:51:48;101371.53;;;24.07
65738;BMP280;52478;51.844;6.582;2022-08-21T03:54:16;101366.19;;;24.09
65738;BMP280;52478;51.844;6.582;2022-08-21T03:56:43;101364.91;;;24.10
65738;BMP280;52478;51.844;6.582;2022-08-21T03:59:09;101368.63;;;24.00
65738;BMP280;52478;51.844;6.582;2022-08-21T04:01:36;101376.00;;;23.97
65738;BMP280;52478;51.844;6.582;2022-08-21T04:04:04;101373.28;;;24.10
65738;BMP280;52478;51.844;6.582;2022-08-21T04:06:31;101366.78;;;24.02
65738;BMP280;52478;51.844;6.582;2022-08-21T04:08:58;101372.63;;;24.04
65738;BMP280;52478;51.844;6.582;2022-08-21T04:11:26;101380.31;;;23.98
65738;BMP280;52478;51.844;6.582;2022-08-21T04:13:52;101378.28;;;23.99
65738;BMP280;52478;51.844;6.582;2022-08-21T04:16:18;101378.75;;;24.03
65738;BMP280;52478;51.844;6.582;2022-08-21T04:18:45;101374.44;;;23.83
65738;BMP280;52478;51.844;6.582;2022-08-21T04:21:12;101380.28;;;23.85
65738;BMP280;52478;51.844;6.582;2022-08-21T04:23:38;101384.72;;;23.75
65738;BMP280;52478;51.844;6.582;2022-08-21T04:26:05;101379.97;;;23.89
65738;BMP280;52478;51.844;6.582;2022-08-21T04:28:33;101380.88;;;23.78
65738;BMP280;52478;51.844;6.582;2022-08-21T04:31:00;101382.41;;;23.79
65738;BMP280;52478;51.844;6.582;2022-08-21T04:33:26;101382.81;;;23.83
65738;BMP280;52478;51.844;6.582;2022-08-21T04:35:53;101382.06;;;23.83
65738;BMP280;52478;51.844;6.582;2022-08-21T04:38:20;101379.38;;;23.77
65738;BMP280;52478;51.844;6.582;2022-08-21T04:40:47;101381.50;;;23.90
65738;BMP280;52478;51.844;6.582;2022-08-21T04:43:14;101389.34;;;23.91
65738;BMP280;52478;51.844;6.582;2022-08-21T04:45:44;101383.72;;;24.10
65738;BMP280;52478;51.844;6.582;2022-08-21T04:48:15;101381.97;;;24.38
65738;BMP280;52478;51.844;6.582;2022-08-21T04:50:45;101390.50;;;24.77
65738;BMP280;52478;51.844;6.582;2022-08-21T04:53:16;101390.91;;;24.68
65738;BMP280;52478;51.844;6.582;2022-08-21T04:55:44;101389.91;;;24.65
65738;BMP280;52478;51.844;6.582;2022-08-21T04:58:13;101391.53;;;24.61
65738;BMP280;52478;51.844;6.582;2022-08-21T05:00:43;101389.50;;;24.61
65738;BMP280;52478;51.844;6.582;2022-08-21T05:03:11;101390.22;;;24.62
65738;BMP280;52478;51.844;6.582;2022-08-21T05:05:38;101382.81;;;24.64
65738;BMP280;52478;51.844;6.582;2022-08-21T05:08:07;101384.00;;;24.69
65738;BMP280;52478;51.844;6.582;2022-08-21T05:10:34;101382.72;;;24.70
65738;BMP280;52478;51.844;6.582;2022-08-21T05:13:01;101374.84;;;24.68
65738;BMP280;52478;51.844;6.582;2022-08-21T05:15:27;101378.19;;;24.67
65738;BMP280;52478;51.844;6.582;2022-08-21T05:17:56;101374.31;;;24.70
65738;BMP280;52478;51.844;6.582;2022-08-21T05:20:22;101378.63;;;24.71
65738;BMP280;52478;51.844;6.582;2022-08-21T05:22:49;101378.84;;;24.73
65738;BMP280;52478;51.844;6.582;2022-08-21T05:25:16;101379.59;;;24.73
65738;BMP280;52478;51.844;6.582;2022-08-21T05:27:43;101375.59;;;24.69
65738;BMP280;52478;51.844;6.582;2022-08-21T05:30:10;101376.34;;;24.56
65738;BMP280;52478;51.844;6.582;2022-08-21T05:32:37;101369.44;;;24.44
65738;BMP280;52478;51.844;6.582;2022-08-21T05:35:06;101371.69;;;24.46
65738;BMP280;52478;51.844;6.582;2022-08-21T05:37:33;101375.09;;;24.39
65738;BMP280;52478;51.844;6.582;2022-08-21T05:40:00;101369.09;;;24.48
65738;BMP280;52478;51.844;6.582;2022-08-21T05:42:27;101368.91;;;24.59
65738;BMP280;52478;51.844;6.582;2022-08-21T05:44:54;101369.94;;;24.43
65738;BMP280;52478;51.844;6.582;2022-08-21T05:47:20;101373.88;;;24.66
65738;BMP280;52478;51.844;6.582;2022-08-21T05:49:47;101366.78;;;24.65
65738;BMP280;52478;51.844;6.582;2022-08-21T05:52:18;101371.06;;;24.66
65738;BMP280;52478;51.844;6.582;2022-08-21T05:54:45;101369.78;;;24.67
65738;BMP280;52478;51.844;6.582;2022-08-21T05:57:11;101370.66;;;24.75
65738;BMP280;52478;51.844;6.582;2022-08-21T05:59:38;101378.44;;;24.95
65738;BMP280;52478;51.844;6.582;2022-08-21T06:02:05;101382.84;;;24.90
65738;BMP280;52478;51.844;6.582;2022-08-21T06:04:35;101384.88;;;25.03
65738;BMP280;52478;51.844;6.582;2022-08-21T06:07:02;101391.81;;;25.02
65738;BMP280;52478;51.844;6.582;2022-08-21T06:09:30;101392.88;;;24.99
65738;BMP280;52478;51.844;6.582;2022-08-21T06:11:57;101387.03;;;24.97
65738;BMP280;52478;51.844;6.582;2022-08-21T06:14:23;101393.72;;;24.94
65738;BMP280;52478;51.844;6.582;2022-08-21T06:16:50;101390.81;;;24.99
65738;BMP280;52478;51.844;6.582;2022-08-21T06:19:16;101393.72;;;25.07
65738;BMP280;52478;51.844;6.582;2022-08-21T06:21:43;101390.81;;;25.12
65738;BMP280;52478;51.844;6.582;2022-08-21T06:24:09;101394.59;;;25.02
65738;BMP280;52478;51.844;6.582;2022-08-21T06:26:37;101385.13;;;24.92
65738;BMP280;52478;51.844;6.582;2022-08-21T06:29:03;101393.63;;;24.99
65738;BMP280;52478;51.844;6.582;2022-08-21T06:31:30;101401.94;;;24.92
65738;BMP280;52478;51.844;6.582;2022-08-21T06:33:57;101398.34;;;24.78
65738;BMP280;52478;51.844;6.582;2022-08-21T06:36:23;101393.47;;;24.79
65738;BMP280;52478;51.844;6.582;2022-08-21T06:38:50;101394.03;;;24.77
65738;BMP280;52478;51.844;6.582;2022-08-21T06:41:16;101392.31;;;24.74
65738;BMP280;52478;51.844;6.582;2022-08-21T06:43:44;101390.16;;;24.80
65738;BMP280;52478;51.844;6.582;2022-08-21T06:46:11;101395.00;;;24.93
65738;BMP280;52478;51.844;6.582;2022-08-21T06:48:38;101397.94;;;25.00
65738;BMP280;52478;51.844;6.582;2022-08-21T06:51:04;101390.72;;;25.05
65738;BMP280;52478;51.844;6.582;2022-08-21T06:53:31;101392.31;;;24.87
65738;BMP280;52478;51.844;6.582;2022-08-21T06:55:57;101399.97;;;24.87
65738;BMP280;52478;51.844;6.582;2022-08-21T06:58:24;101404.94;;;24.94
65738;BMP280;52478;51.844;6.582;2022-08-21T07:00:52;101400.06;;;24.68
65738;BMP280;52478;51.844;6.582;2022-08-21T07:03:21;101397.16;;;24.74
65738;BMP280;52478;51.844;6.582;2022-08-21T07:05:48;101408.16;;;24.85
65738;BMP280;52478;51.844;6.582;2022-08-21T07:08:15;101401.03;;;24.84
65738;BMP280;52478;51.844;6.582;2022-08-21T07:10:42;101410.09;;;24.90
65738;BMP280;52478;51.844;6.582;2022-08-21T07:13:08;101405.78;;;24.89
65738;BMP280;52478;51.844;6.582;2022-08-21T07:15:35;101410.97;;;24.98
65738;BMP280;52478;51.844;6.582;2022-08-21T07:18:03;101411.63;;;25.04
65738;BMP280;52478;51.844;6.582;2022-08-21T07:20:30;101405.19;;;25.09
65738;BMP280;52478;51.844;6.582;2022-08-21T07:22:59;101402.56;;;25.11
65738;BMP280;52478;51.844;6.582;2022-08-21T07:25:27;101403.69;;;24.63
65738;BMP280;52478;51.844;6.582;2022-08-21T07:27:53;101408.34;;;24.74
65738;BMP280;52478;51.844;6.582;2022-08-21T07:30:21;101414.84;;;24.82
65738;BMP280;52478;51.844;6.582;2022-08-21T07:32:47;101406.31;;;24.87
65738;BMP280;52478;51.844;6.582;2022-08-21T07:35:16;101406.47;;;24.95
65738;BMP280;52478;51.844;6.582;2022-08-21T07:37:43;101404.72;;;24.92
65738;BMP280;52478;51.844;6.582;2022-08-21T07:40:10;101401.81;;;24.84
65738;BMP280;52478;51.844;6.582;2022-08-21T07:42:40;101402.34;;;24.83
65738;BMP280;52478;51.844;6.582;2022-08-21T07:45:08;101400.16;;;24.76
65738;BMP280;52478;51.844;6.582;2022-08-21T07:47:35;101408.56;;;24.89
65738;BMP280;52478;51.844;6.582;2022-08-21T07:50:03;101399.22;;;24.86
65738;BMP280;52478;51.844;6.582;2022-08-21T07:52:31;101393.16;;;24.56
65738;BMP280;52478;51.844;6.582;2022-08-21T07:54:58;101397.66;;;23.78
65738;BMP280;52478;51.844;6.582;2022-08-21T07:57:25;101390.16;;;23.49
65738;BMP280;52478;51.844;6.582;2022-08-21T07:59:52;101394.28;;;23.01
65738;BMP280;52478;51.844;6.582;2022-08-21T08:02:23;101387.84;;;23.06
65738;BMP280;52478;51.844;6.582;2022-08-21T08:04:49;101392.06;;;23.18
65738;BMP280;52478;51.844;6.582;2022-08-21T08:07:16;101391.34;;;23.35
65738;BMP280;52478;51.844;6.582;2022-08-21T08:09:44;101394.00;;;23.83
65738;BMP280;52478;51.844;6.582;2022-08-21T08:12:11;101390.50;;;24.14
65738;BMP280;52478;51.844;6.582;2022-08-21T08:14:38;101384.50;;;24.10
65738;BMP280;52478;51.844;6.582;2022-08-21T08:17:04;101384.53;;;24.23
65738;BMP280;52478;51.844;6.582;2022-08-21T08:19:31;101389.59;;;24.24
65738;BMP280;52478;51.844;6.582;2022-08-21T08:21:57;101389.84;;;24.39
65738;BMP280;52478;51.844;6.582;2022-08-21T08:24:24;101392.16;;;24.41
65738;BMP280;52478;51.844;6.582;2022-08-21T08:26:52;101393.88;;;24.57
65738;BMP280;52478;51.844;6.582;2022-08-21T08:29:19;101383.66;;;24.72
65738;BMP280;52478;51.844;6.582;2022-08-21T08:31:45;101391.34;;;24.85
65738;BMP280;52478;51.844;6.582;2022-08-21T08:34:12;101391.34;;;24.98
65738;BMP280;52478;51.844;6.582;2022-08-21T08:36:38;101385.47;;;25.01
65738;BMP280;52478;51.844;6.582;2022-08-21T08:39:05;101388.38;;;25.09
65738;BMP280;52478;51.844;6.582;2022-08-21T08:41:32;101387.78;;;25.10
65738;BMP280;52478;51.844;6.582;2022-08-21T08:44:02;101387.28;;;25.12
65738;BMP280;52478;51.844;6.582;2022-08-21T08:46:33;101389.19;;;25.16
65738;BMP280;52478;51.844;6.582;2022-08-21T08:49:08;101387.16;;;25.17
65738;BMP280;52478;51.844;6.582;2022-08-21T08:51:40;101392.66;;;25.22
65738;BMP280;52478;51.844;6.582;2022-08-21T08:54:12;101381.44;;;25.22
65738;BMP280;52478;51.844;6.582;2022-08-21T08:56:40;101389.00;;;25.27
65738;BMP280;52478;51.844;6.582;2022-08-21T08:59:14;101389.44;;;25.31
65738;BMP280;52478;51.844;6.582;2022-08-21T09:01:41;101388.75;;;25.38
65738;BMP280;52478;51.844;6.582;2022-08-21T09:04:09;101386.81;;;25.46
65738;BMP280;52478;51.844;6.582;2022-08-21T09:06:53;101385.16;;;25.51
65738;BMP280;52478;51.844;6.582;2022-08-21T09:09:44;101373.41;;;25.52
65738;BMP280;52478;51.844;6.582;2022-08-21T09:12:17;101379.66;;;25.58
65738;BMP280;52478;51.844;6.582;2022-08-21T09:14:57;101371.91;;;25.64
65738;BMP280;52478;51.844;6.582;2022-08-21T09:17:39;101374.56;;;25.70
65738;BMP280;52478;51.844;6.582;2022-08-21T09:20:19;101369.38;;;25.74
65738;BMP280;52478;51.844;6.582;2022-08-21T09:22:57;101363.63;;;25.79
65738;BMP280;52478;51.844;6.582;2022-08-21T09:25:27;101366.50;;;25.87
65738;BMP280;52478;51.844;6.582;2022-08-21T09:27:54;101367.69;;;25.91
65738;BMP280;52478;51.844;6.582;2022-08-21T09:30:26;101365.84;;;25.94
65738;BMP280;52478;51.844;6.582;2022-08-21T09:32:54;101363.75;;;25.94
65738;BMP280;52478;51.844;6.582;2022-08-21T09:35:22;101366.81;;;25.96
65738;BMP280;52478;51.844;6.582;2022-08-21T09:37:52;101361.38;;;25.98
65738;BMP280;52478;51.844;6.582;2022-08-21T09:40:27;101372.59;;;25.98
65738;BMP280;52478;51.844;6.582;2022-08-21T09:42:56;101366.47;;;26.00
65738;BMP280;52478;51.844;6.582;2022-08-21T09:45:25;101368.91;;;26.03
65738;BMP280;52478;51.844;6.582;2022-08-21T09:47:52;101364.25;;;26.05
65738;BMP280;52478;51.844;6.582;2022-08-21T09:50:21;101368.25;;;26.10
65738;BMP280;52478;51.844;6.582;2022-08-21T09:52:50;101361.53;;;26.13
65738;BMP280;52478;51.844;6.582;2022-08-21T09:55:24;101358.53;;;26.11
65738;BMP280;52478;51.844;6.582;2022-08-21T09:58:10;101370.50;;;26.11
65738;BMP280;52478;51.844;6.582;2022-08-21T10:00:39;101355.94;;;26.13
65738;BMP280;52478;51.844;6.582;2022-08-21T10:03:11;101355.94;;;26.13
65738;BMP280;52478;51.844;6.582;2022-08-21T10:05:39;101354.63;;;26.14
65738;BMP280;52478;51.844;6.582;2022-08-21T10:08:16;101353.31;;;26.15
65738;BMP280;52478;51.844;6.582;2022-08-21T10:10:43;101354.41;;;26.12
65738;BMP280;52478;51.844;6.582;2022-08-21T10:13:13;101361.97;;;26.17
65738;BMP280;52478;51.844;6.582;2022-08-21T10:15:50;101354.81;;;26.16
65738;BMP280;52478;51.844;6.582;2022-08-21T10:18:26;101358.59;;;26.18
65738;BMP280;52478;51.844;6.582;2022-08-21T10:21:00;101356.75;;;26.21
65738;BMP280;52478;51.844;6.582;2022-08-21T10:23:38;101357.69;;;26.23
65738;BMP280;52478;51.844;6.582;2022-08-21T10:26:10;101358.28;;;26.22
65738;BMP280;52478;51.844;6.582;2022-08-21T10:28:44;101351.75;;;26.27
65738;BMP280;52478;51.844;6.582;2022-08-21T10:31:29;101359.53;;;26.21
65738;BMP280;52478;51.844;6.582;2022-08-21T10:34:10;101352.25;;;26.18
65738;BMP280;52478;51.844;6.582;2022-08-21T10:36:46;101339.50;;;26.17
65738;BMP280;52478;51.844;6.582;2022-08-21T10:39:21;101348.66;;;26.17
65738;BMP280;52478;51.844;6.582;2022-08-21T10:44:54;101367.16;;;26.13
65738;BMP280;52478;51.844;6.582;2022-08-21T10:47:30;101352.56;;;26.14
65738;BMP280;52478;51.844;6.582;2022-08-21T10:50:09;101348.47;;;26.15
65738;BMP280;52478;51.844;6.582;2022-08-21T10:52:49;101341.34;;;26.14
65738;BMP280;52478;51.844;6.582;2022-08-21T10:55:22;101354.19;;;26.10
65738;BMP280;52478;51.844;6.582;2022-08-21T10:57:54;101352.31;;;26.05
65738;BMP280;52478;51.844;6.582;2022-08-21T11:00:23;101348.91;;;25.99
65738;BMP280;52478;51.844;6.582;2022-08-21T11:02:55;101346.28;;;26.01
65738;BMP280;52478;51.844;6.582;2022-08-21T11:05:30;101345.75;;;26.03
65738;BMP280;52478;51.844;6.582;2022-08-21T11:08:02;101350.63;;;25.89
65738;BMP280;52478;51.844;6.582;2022-08-21T11:10:36;101345.50;;;25.80
65738;BMP280;52478;51.844;6.582;2022-08-21T11:13:08;101348.19;;;25.86
65738;BMP280;52478;51.844;6.582;2022-08-21T11:15:39;101353.19;;;25.80
65738;BMP280;52478;51.844;6.582;2022-08-21T11:18:21;101355.47;;;25.68
65738;BMP280;52478;51.844;6.582;2022-08-21T11:20:56;101347.66;;;25.74
65738;BMP280;52478;51.844;6.582;2022-08-21T11:23:29;101353.44;;;25.89
65738;BMP280;52478;51.844;6.582;2022-08-21T11:26:00;101351.81;;;25.94
65738;BMP280;52478;51.844;6.582;2022-08-21T11:28:32;101354.25;;;25.97
65738;BMP280;52478;51.844;6.582;2022-08-21T11:31:11;101350.38;;;26.00
65738;BMP280;52478;51.844;6.582;2022-08-21T11:33:50;101349.00;;;25.94
65738;BMP280;52478;51.844;6.582;2022-08-21T11:36:30;101354.69;;;26.01
65738;BMP280;52478;51.844;6.582;2022-08-21T11:39:02;101355.34;;;25.94
65738;BMP280;52478;51.844;6.582;2022-08-21T11:41:37;101349.38;;;25.90
65738;BMP280;52478;51.844;6.582;2022-08-21T11:44:13;101352.22;;;25.98
65738;BMP280;52478;51.844;6.582;2022-08-21T11:46:47;101340.84;;;26.03
65738;BMP280;52478;51.844;6.582;2022-08-21T11:52:16;101343.03;;;25.97
65738;BMP280;52478;51.844;6.582;2022-08-21T11:54:46;101350.63;;;25.89
65738;BMP280;52478;51.844;6.582;2022-08-21T11:57:17;101351.06;;;25.93
65738;BMP280;52478;51.844;6.582;2022-08-21T11:59:51;101345.13;;;25.97
65738;BMP280;52478;51.844;6.582;2022-08-21T12:02:21;101344.22;;;26.02
65738;BMP280;52478;51.844;6.582;2022-08-21T12:04:53;101342.38;;;26.04
65738;BMP280;52478;51.844;6.582;2022-08-21T12:07:31;101335.66;;;26.07
65738;BMP280;52478;51.844;6.582;2022-08-21T12:09:59;101322.47;;;26.15
65738;BMP280;52478;51.844;6.582;2022-08-21T12:12:28;101329.78;;;26.18
65738;BMP280;52478;51.844;6.582;2022-08-21T12:15:16;101326.97;;;26.18
65738;BMP280;52478;51.844;6.582;2022-08-21T12:17:55;101331.25;;;26.19
65738;BMP280;52478;51.844;6.582;2022-08-21T12:20:40;101317.44;;;26.21
65738;BMP280;52478;51.844;6.582;2022-08-21T12:23:24;101323.47;;;26.25
65738;BMP280;52478;51.844;6.582;2022-08-21T12:28:47;101334.50;;;26.23
65738;BMP280;52478;51.844;6.582;2022-08-21T12:31:22;101336.41;;;26.28
65738;BMP280;52478;51.844;6.582;2022-08-21T12:33:56;101335.84;;;26.29
65738;BMP280;52478;51.844;6.582;2022-08-21T12:36:34;101334.28;;;26.21
65738;BMP280;52478;51.844;6.582;2022-08-21T12:39:05;101338.81;;;26.24
65738;BMP280;52478;51.844;6.582;2022-08-21T12:41:43;101332.28;;;26.29
65738;BMP280;52478;51.844;6.582;2022-08-21T12:44:14;101326.81;;;26.23
65738;BMP280;52478;51.844;6.582;2022-08-21T12:46:46;101324.50;;;26.14
65738;BMP280;52478;51.844;6.582;2022-08-21T12:49:17;101327.56;;;26.24
65738;BMP280;52478;51.844;6.582;2022-08-21T12:51:56;101331.25;;;26.19
65738;BMP280;52478;51.844;6.582;2022-08-21T12:54:26;101340.53;;;26.27
65738;BMP280;52478;51.844;6.582;2022-08-21T12:56:57;101332.53;;;26.31
65738;BMP280;52478;51.844;6.582;2022-08-21T12:59:24;101341.69;;;26.31
65738;BMP280;52478;51.844;6.582;2022-08-21T13:01:51;101334.75;;;26.32
65738;BMP280;52478;51.844;6.582;2022-08-21T13:04:22;101337.78;;;26.34
65738;BMP280;52478;51.844;6.582;2022-08-21T13:06:53;101337.00;;;26.34
65738;BMP280;52478;51.844;6.582;2022-08-21T13:09:25;101340.25;;;26.38
65738;BMP280;52478;51.844;6.582;2022-08-21T13:11:52;101333.53;;;26.41
65738;BMP280;52478;51.844;6.582;2022-08-21T13:14:24;101329.22;;;26.40
65738;BMP280;52478;51.844;6.582;2022-08-21T13:16:53;101326.59;;;26.42
65738;BMP280;52478;51.844;6.582;2022-08-21T13:19:20;101327.91;;;26.41
65738;BMP280;52478;51.844;6.582;2022-08-21T13:21:46;101327.34;;;26.42
65738;BMP280;52478;51.844;6.582;2022-08-21T13:24:17;101322.91;;;26.47
65738;BMP280;52478;51.844;6.582;2022-08-21T13:26:45;101312.97;;;26.46
65738;BMP280;52478;51.844;6.582;2022-08-21T13:29:14;101312.59;;;26.49
65738;BMP280;52478;51.844;6.582;2022-08-21T13:31:46;101311.88;;;26.49
65738;BMP280;52478;51.844;6.582;2022-08-21T13:34:14;101305.84;;;26.45
65738;BMP280;52478;51.844;6.582;2022-08-21T13:36:43;101300.78;;;26.43
65738;BMP280;52478;51.844;6.582;2022-08-21T13:39:12;101306.81;;;26.47
65738;BMP280;52478;51.844;6.582;2022-08-21T13:41:42;101307.94;;;26.52
65738;BMP280;52478;51.844;6.582;2022-08-21T13:44:15;101296.28;;;26.48
65738;BMP280;52478;51.844;6.582;2022-08-21T13:46:42;101316.78;;;26.28
65738;BMP280;52478;51.844;6.582;2022-08-21T13:49:10;101313.06;;;26.33
65738;BMP280;52478;51.844;6.582;2022-08-21T13:51:39;101300.53;;;26.41
65738;BMP280;52478;51.844;6.582;2022-08-21T13:54:13;101299.88;;;26.48
65738;BMP280;52478;51.844;6.582;2022-08-21T13:56:44;101300.81;;;26.51
65738;BMP280;52478;51.844;6.582;2022-08-21T13:59:11;101301.22;;;26.55
65738;BMP280;52478;51.844;6.582;2022-08-21T14:01:47;101298.94;;;26.46
65738;BMP280;52478;51.844;6.582;2022-08-21T14:04:19;101305.69;;;26.50
65738;BMP280;52478;51.844;6.582;2022-08-21T14:06:46;101308.34;;;26.56
65738;BMP280;52478;51.844;6.582;2022-08-21T14:09:24;101298.81;;;26.59
65738;BMP280;52478;51.844;6.582;2022-08-21T14:11:54;101297.03;;;26.41
65738;BMP280;52478;51.844;6.582;2022-08-21T14:14:23;101298.94;;;26.46
65738;BMP280;52478;51.844;6.582;2022-08-21T14:16:54;101294.66;;;26.52
65738;BMP280;52478;51.844;6.582;2022-08-21T14:19:25;101298.00;;;26.51
65738;BMP280;52478;51.844;6.582;2022-08-21T14:21:52;101292.59;;;26.53
65738;BMP280;52478;51.844;6.582;2022-08-21T14:24:26;101295.25;;;26.58
65738;BMP280;52478;51.844;6.582;2022-08-21T14:26:56;101285.72;;;26.61
65738;BMP280;52478;51.844;6.582;2022-08-21T14:29:28;101286.47;;;26.62
65738;BMP280;52478;51.844;6.582;2022-08-21T14:31:59;101293.38;;;26.61
65738;BMP280;52478;51.844;6.582;2022-08-21T14:34:34;101287.25;;;26.62
65738;BMP280;52478;51.844;6.582;2022-08-21T14:37:00;101288.19;;;26.65
65738;BMP280;52478;51.844;6.582;2022-08-21T14:39:27;101283.66;;;26.62
65738;BMP280;52478;51.844;6.582;2022-08-21T14:41:56;101277.88;;;26.60
65738;BMP280;52478;51.844;6.582;2022-08-21T14:44:23;101280.13;;;26.61
65738;BMP280;52478;51.844;6.582;2022-08-21T14:46:50;101284.38;;;26.55
65738;BMP280;52478;51.844;6.582;2022-08-21T14:49:17;101276.78;;;26.63
65738;BMP280;52478;51.844;6.582;2022-08-21T14:51:43;101284.78;;;26.59
65738;BMP280;52478;51.844;6.582;2022-08-21T14:54:10;101286.66;;;26.64
65738;BMP280;52478;51.844;6.582;2022-08-21T14:56:36;101290.97;;;26.65
65738;BMP280;52478;51.844;6.582;2022-08-21T14:59:07;101276.91;;;26.57
65738;BMP280;52478;51.844;6.582;2022-08-21T15:01:43;101278.41;;;26.58
65738;BMP280;52478;51.844;6.582;2022-08-21T15:04:10;101268.34;;;26.63
65738;BMP280;52478;51.844;6.582;2022-08-21T15:06:37;101268.88;;;26.61
65738;BMP280;52478;51.844;6.582;2022-08-21T15:09:03;101275.78;;;26.60
65738;BMP280;52478;51.844;6.582;2022-08-21T15:11:32;101270.91;;;26.61
65738;BMP280;52478;51.844;6.582;2022-08-21T15:14:02;101267.22;;;26.66
65738;BMP280;52478;51.844;6.582;2022-08-21T15:16:30;101273.03;;;26.68
65738;BMP280;52478;51.844;6.582;2022-08-21T15:18:57;101285.97;;;26.71
65738;BMP280;52478;51.844;6.582;2022-08-21T15:21:23;101267.59;;;26.70
65738;BMP280;52478;51.844;6.582;2022-08-21T15:23:50;101272.47;;;26.69
65738;BMP280;52478;51.844;6.582;2022-08-21T15:26:17;101268.94;;;26.69
65738;BMP280;52478;51.844;6.582;2022-08-21T15:28:43;101271.50;;;26.67
65738;BMP280;52478;51.844;6.582;2022-08-21T15:31:10;101276.19;;;26.64
65738;BMP280;52478;51.844;6.582;2022-08-21T15:33:37;101275.44;;;26.64
65738;BMP280;52478;51.844;6.582;2022-08-21T15:36:04;101271.88;;;26.63
65738;BMP280;52478;51.844;6.582;2022-08-21T15:38:31;101284.59;;;26.57
65738;BMP280;52478;51.844;6.582;2022-08-21T15:40:57;101274.28;;;26.59
65738;BMP280;52478;51.844;6.582;2022-08-21T15:43:26;101281.78;;;26.64
65738;BMP280;52478;51.844;6.582;2022-08-21T15:45:53;101280.16;;;26.69
65738;BMP280;52478;51.844;6.582;2022-08-21T15:48:20;101277.34;;;26.69
65738;BMP280;52478;51.844;6.582;2022-08-21T15:50:49;101276.25;;;26.72
65738;BMP280;52478;51.844;6.582;2022-08-21T15:53:15;101279.06;;;26.72
65738;BMP280;52478;51.844;6.582;2022-08-21T15:55:42;101275.13;;;26.75
65738;BMP280;52478;51.844;6.582;2022-08-21T15:58:12;101280.00;;;26.74
65738;BMP280;52478;51.844;6.582;2022-08-21T16:00:39;101276.59;;;26.76
65738;BMP280;52478;51.844;6.582;2022-08-21T16:03:11;101278.13;;;26.77
65738;BMP280;52478;51.844;6.582;2022-08-21T16:05:40;101281.16;;;26.79
65738;BMP280;52478;51.844;6.582;2022-08-21T16:08:09;101282.63;;;26.80
65738;BMP280;52478;51.844;6.582;2022-08-21T16:10:36;101281.34;;;26.81
65738;BMP280;52478;51.844;6.582;2022-08-21T16:13:18;101290.31;;;26.79
65738;BMP280;52478;51.844;6.582;2022-08-21T16:15:47;101293.13;;;26.79
65738;BMP280;52478;51.844;6.582;2022-08-21T16:18:14;101283.97;;;26.79
65738;BMP280;52478;51.844;6.582;2022-08-21T16:20:40;101291.06;;;26.80
65738;BMP280;52478;51.844;6.582;2022-08-21T16:23:08;101293.88;;;26.80
65738;BMP280;52478;51.844;6.582;2022-08-21T16:25:35;101289.78;;;26.81
65738;BMP280;52478;51.844;6.582;2022-08-21T16:28:04;101290.13;;;26.77
65738;BMP280;52478;51.844;6.582;2022-08-21T16:30:31;101292.38;;;26.79
65738;BMP280;52478;51.844;6.582;2022-08-21T16:32:59;101291.63;;;26.78
65738;BMP280;52478;51.844;6.582;2022-08-21T16:35:26;101286.75;;;26.79
65738;BMP280;52478;51.844;6.582;2022-08-21T16:37:52;101286.19;;;26.80
65738;BMP280;52478;51.844;6.582;2022-08-21T16:40:20;101293.31;;;26.81
65738;BMP280;52478;51.844;6.582;2022-08-21T16:42:48;101298.22;;;26.81
65738;BMP280;52478;51.844;6.582;2022-08-21T16:45:17;101296.13;;;26.81